Time;durP1;ratioP1;P1;durP2;ratioP2;P2;SDS_P1;SDS_P2;PMS_P1;PMS_P2;Temp;Humidity;BMP_temperature;BMP_pressure;BME280_temperature;BME280_humidity;BME280_pressure;Samples;Min_cycle;Max_cycle;Signal;HPM_P1;HPM_P2
2021/08/05 00:01:35;;;;;;;12.33;10.10;;;17.60;99.90;;;;;;4163583;28;20239;-78
2021/08/05 00:03:37;;;;;;;10.90;9.33;;;17.60;99.90;;;;;;4157387;28;20223;-77
2021/08/05 00:05:41;;;;;;;11.17;9.97;;;17.60;99.90;;;;;;4164441;28;20247;-77
2021/08/05 00:07:43;;;;;;;12.33;10.43;;;17.60;99.90;;;;;;4164297;28;20215;-77
2021/08/05 00:09:44;;;;;;;11.63;10.40;;;17.60;99.90;;;;;;4164383;28;20207;-77
2021/08/05 00:11:46;;;;;;;11.73;10.37;;;17.60;99.90;;;;;;4154369;28;20695;-77
2021/08/05 00:13:48;;;;;;;12.23;10.30;;;17.60;99.90;;;;;;4163290;28;20597;-77
2021/08/05 00:15:51;;;;;;;10.50;9.40;;;17.60;99.90;;;;;;4164494;28;20211;-77
2021/08/05 00:17:53;;;;;;;12.67;9.70;;;17.60;99.90;;;;;;4163143;28;20564;-77
2021/08/05 00:19:54;;;;;;;11.07;9.83;;;17.50;99.90;;;;;;4152381;28;20666;-77
2021/08/05 00:21:56;;;;;;;11.27;10.07;;;17.50;99.90;;;;;;4147689;28;20702;-77
2021/08/05 00:23:58;;;;;;;10.93;9.80;;;17.60;99.90;;;;;;4160927;28;20203;-77
2021/08/05 00:25:59;;;;;;;12.80;10.30;;;17.50;99.90;;;;;;4163584;28;20280;-77
2021/08/05 00:28:01;;;;;;;11.40;10.20;;;17.50;99.90;;;;;;4163387;28;20265;-77
2021/08/05 00:30:03;;;;;;;13.47;10.33;;;17.50;99.90;;;;;;4160643;28;20215;-77
2021/08/05 00:32:07;;;;;;;12.27;10.40;;;17.50;99.90;;;;;;4163271;28;20678;-77
2021/08/05 00:34:09;;;;;;;14.03;9.97;;;17.50;99.90;;;;;;4163564;28;20203;-77
2021/08/05 00:36:11;;;;;;;13.30;10.73;;;17.50;99.90;;;;;;4162113;28;20203;-76
2021/08/05 00:38:13;;;;;;;11.27;10.07;;;17.40;99.90;;;;;;4161233;28;20214;-76
2021/08/05 00:40:15;;;;;;;11.13;9.87;;;17.40;99.90;;;;;;4147013;28;20215;-77
2021/08/05 00:42:16;;;;;;;12.87;10.90;;;17.40;99.90;;;;;;4146903;28;20305;-77
2021/08/05 00:44:18;;;;;;;14.33;12.43;;;17.40;99.90;;;;;;4157011;28;20713;-77
2021/08/05 00:46:20;;;;;;;15.27;13.10;;;17.40;99.90;;;;;;4164251;28;20215;-77
2021/08/05 00:48:23;;;;;;;16.63;13.33;;;17.30;99.90;;;;;;4158715;28;20210;-76
2021/08/05 00:50:25;;;;;;;15.73;12.63;;;17.30;99.90;;;;;;4163525;28;20207;-77
2021/08/05 00:52:26;;;;;;;16.03;12.73;;;17.20;99.90;;;;;;4163972;28;20276;-76
2021/08/05 00:54:28;;;;;;;15.93;12.50;;;17.30;99.90;;;;;;4163645;28;20218;-77
2021/08/05 00:56:30;;;;;;;16.37;12.03;;;17.30;99.90;;;;;;4165754;28;20222;-77
2021/08/05 00:58:32;;;;;;;14.37;12.03;;;17.20;99.90;;;;;;4170743;28;20214;-77
2021/08/05 01:00:34;;;;;;;15.03;11.37;;;17.20;99.90;;;;;;4173331;28;20258;-77
2021/08/05 01:02:40;;;;;;;12.43;10.90;;;17.20;99.90;;;;;;4165516;28;20227;-77
2021/08/05 01:04:45;;;;;;;13.53;11.80;;;17.20;99.90;;;;;;4178092;28;20240;-77
2021/08/05 01:06:57;;;;;;;15.80;11.93;;;17.20;99.90;;;;;;4169097;28;20931;-77
2021/08/05 01:09:04;;;;;;;14.30;11.73;;;17.20;99.90;;;;;;4150586;28;20265;-77
2021/08/05 01:11:11;;;;;;;13.27;11.13;;;17.20;99.90;;;;;;4150894;28;20629;-77
2021/08/05 01:13:20;;;;;;;15.07;11.60;;;17.20;99.90;;;;;;4161301;28;20293;-77
2021/08/05 01:15:24;;;;;;;14.47;11.30;;;17.10;99.90;;;;;;4165961;28;20203;-77
2021/08/05 01:17:28;;;;;;;15.33;11.77;;;17.10;99.90;;;;;;4150681;28;20211;-77
2021/08/05 01:19:37;;;;;;;14.17;11.17;;;17.20;99.90;;;;;;4150305;28;20621;-77
2021/08/05 01:21:49;;;;;;;15.53;12.37;;;17.10;99.90;;;;;;4155450;28;20234;-77
2021/08/05 01:23:55;;;;;;;13.63;12.00;;;17.10;99.90;;;;;;4166573;28;20348;-77
2021/08/05 01:26:07;;;;;;;15.63;12.97;;;17.10;99.90;;;;;;4151190;28;20231;-77
2021/08/05 01:28:11;;;;;;;17.77;12.83;;;17.10;99.90;;;;;;4153171;28;20203;-77
2021/08/05 01:30:13;;;;;;;14.87;11.90;;;17.10;99.90;;;;;;4166430;28;20273;-77
2021/08/05 01:32:16;;;;;;;19.13;12.93;;;17.00;99.90;;;;;;4163700;28;20265;-77
2021/08/05 01:34:20;;;;;;;16.43;12.43;;;17.00;99.90;;;;;;4161024;28;20203;-77
2021/08/05 01:36:24;;;;;;;17.43;13.23;;;17.00;99.90;;;;;;4165853;28;20280;-77
2021/08/05 01:38:26;;;;;;;15.03;12.67;;;17.00;99.90;;;;;;4167063;28;20568;-77
2021/08/05 01:40:29;;;;;;;15.67;13.37;;;17.00;99.90;;;;;;4166017;28;20260;-77
2021/08/05 01:42:32;;;;;;;13.97;11.83;;;16.90;99.90;;;;;;4164616;28;20285;-77
2021/08/05 01:44:35;;;;;;;15.47;12.40;;;16.90;99.90;;;;;;4165425;28;20743;-77
2021/08/05 01:46:38;;;;;;;14.77;12.57;;;17.00;99.90;;;;;;4165405;28;20220;-77
2021/08/05 01:48:40;;;;;;;16.83;12.30;;;16.90;99.90;;;;;;4164840;28;20214;-77
2021/08/05 01:50:43;;;;;;;14.03;11.93;;;16.90;99.90;;;;;;4165660;28;20272;-77
2021/08/05 01:52:46;;;;;;;14.13;11.23;;;16.90;99.90;;;;;;4165657;28;20261;-77
2021/08/05 01:54:48;;;;;;;13.90;11.87;;;16.90;99.90;;;;;;4159092;28;20207;-77
2021/08/05 01:56:52;;;;;;;14.10;12.00;;;16.90;99.90;;;;;;4166294;28;20226;-77
2021/08/05 01:58:55;;;;;;;15.00;12.40;;;16.90;99.90;;;;;;4161509;28;20217;-77
2021/08/05 02:00:58;;;;;;;15.90;12.60;;;16.80;99.90;;;;;;4149965;28;20752;-77
2021/08/05 02:03:00;;;;;;;16.03;12.77;;;16.80;99.90;;;;;;4164829;28;20223;-77
2021/08/05 02:05:06;;;;;;;18.03;13.13;;;16.80;99.90;;;;;;4164889;28;20234;-77
2021/08/05 02:07:13;;;;;;;18.20;13.73;;;16.80;99.90;;;;;;4164718;28;20261;-77
2021/08/05 02:09:17;;;;;;;17.70;14.23;;;16.70;99.90;;;;;;4157454;28;20253;-77
2021/08/05 02:11:23;;;;;;;15.30;12.83;;;16.70;99.90;;;;;;4158766;28;20622;-77
2021/08/05 02:13:29;;;;;;;17.67;14.10;;;16.70;99.90;;;;;;4164724;28;20216;-77
2021/08/05 02:15:34;;;;;;;19.27;14.77;;;16.70;99.90;;;;;;4165649;28;20605;-77
2021/08/05 02:17:42;;;;;;;17.80;14.10;;;16.70;99.90;;;;;;4165442;28;20589;-77
2021/08/05 02:19:45;;;;;;;20.00;14.03;;;16.70;99.90;;;;;;4151896;28;20214;-77
2021/08/05 02:21:47;;;;;;;19.87;14.43;;;16.70;99.90;;;;;;4153825;28;20219;-77
2021/08/05 02:23:51;;;;;;;18.60;14.47;;;16.70;99.90;;;;;;4165845;28;20215;-77
2021/08/05 02:25:54;;;;;;;19.07;15.17;;;16.70;99.90;;;;;;4166727;28;20227;-77
2021/08/05 02:27:57;;;;;;;17.80;14.27;;;16.70;99.90;;;;;;4175532;28;20209;-77
2021/08/05 02:29:59;;;;;;;20.10;15.20;;;16.70;99.90;;;;;;4164859;28;20561;-77
2021/08/05 02:32:02;;;;;;;18.50;15.30;;;16.60;99.90;;;;;;4165629;28;20231;-77
2021/08/05 02:34:07;;;;;;;20.13;15.50;;;16.60;99.90;;;;;;4165350;28;20630;-76
2021/08/05 02:36:08;;;;;;;20.73;15.47;;;16.60;99.90;;;;;;4163588;28;20207;-77
2021/08/05 02:38:11;;;;;;;18.80;14.97;;;16.60;99.90;;;;;;4160227;28;20666;-77
2021/08/05 02:40:13;;;;;;;19.50;15.90;;;16.60;99.90;;;;;;4165437;28;20677;-77
2021/08/05 02:42:15;;;;;;;20.27;15.57;;;16.60;99.90;;;;;;4163857;28;20274;-77
2021/08/05 02:44:18;;;;;;;21.00;15.43;;;16.60;99.90;;;;;;4166156;28;20214;-77
2021/08/05 02:46:19;;;;;;;20.27;16.00;;;16.60;99.90;;;;;;4149214;28;20305;-77
2021/08/05 02:48:22;;;;;;;18.97;14.67;;;16.60;99.90;;;;;;4158410;28;20210;-77
2021/08/05 02:50:27;;;;;;;19.03;14.17;;;16.60;99.90;;;;;;4165244;28;20222;-77
2021/08/05 02:52:29;;;;;;;18.60;14.37;;;16.60;99.90;;;;;;4161033;28;20286;-77
2021/08/05 02:54:31;;;;;;;18.03;14.30;;;16.60;99.90;;;;;;4163186;28;20678;-76
2021/08/05 02:56:34;;;;;;;18.73;14.77;;;16.60;99.90;;;;;;4196547;23;20669;-77
2021/08/05 02:58:36;;;;;;;20.30;15.27;;;16.60;99.90;;;;;;4180577;28;20655;-77
2021/08/05 03:00:38;;;;;;;18.83;14.80;;;16.60;99.90;;;;;;4182369;28;20688;-77
2021/08/05 03:02:41;;;;;;;20.43;15.27;;;16.60;99.90;;;;;;4166060;28;20211;-77
2021/08/05 03:04:43;;;;;;;18.57;14.47;;;16.60;99.90;;;;;;4179799;28;20741;-77
2021/08/05 03:06:47;;;;;;;17.87;14.07;;;16.60;99.90;;;;;;4181542;28;20245;-77
2021/08/05 03:08:49;;;;;;;16.97;13.90;;;16.60;99.90;;;;;;4178972;28;20290;-77
2021/08/05 03:10:51;;;;;;;18.17;14.07;;;16.60;99.90;;;;;;4165471;28;20213;-77
2021/08/05 03:12:52;;;;;;;18.20;14.63;;;16.60;99.90;;;;;;4179494;28;20580;-76
2021/08/05 03:14:54;;;;;;;17.70;13.97;;;16.50;99.90;;;;;;4181523;28;20680;-77
2021/08/05 03:16:56;;;;;;;16.73;13.77;;;16.60;99.90;;;;;;4174031;28;20227;-77
2021/08/05 03:18:57;;;;;;;19.43;15.07;;;16.50;99.90;;;;;;4185226;28;20217;-75
2021/08/05 03:20:59;;;;;;;17.57;14.70;;;16.50;99.90;;;;;;4180982;28;20560;-76
2021/08/05 03:23:02;;;;;;;21.83;15.70;;;16.60;99.90;;;;;;4179989;28;20218;-76
2021/08/05 03:25:04;;;;;;;17.67;14.60;;;16.60;99.90;;;;;;4179318;28;20220;-75
2021/08/05 03:27:06;;;;;;;18.80;15.30;;;16.60;99.90;;;;;;4171799;28;20486;-75
2021/08/05 03:29:08;;;;;;;20.90;14.97;;;16.60;99.90;;;;;;4180970;28;20210;-75
2021/08/05 03:31:09;;;;;;;20.50;15.43;;;16.60;99.90;;;;;;4180632;28;20507;-75
2021/08/05 03:33:11;;;;;;;19.53;15.80;;;16.60;99.90;;;;;;4180547;28;20334;-76
2021/08/05 03:35:13;;;;;;;19.83;15.20;;;16.60;99.90;;;;;;4164784;28;20728;-76
2021/08/05 03:37:15;;;;;;;20.97;15.97;;;16.60;99.90;;;;;;4169041;28;20225;-76
2021/08/05 03:39:18;;;;;;;18.73;15.80;;;16.60;99.90;;;;;;4180628;28;20240;-75
2021/08/05 03:41:20;;;;;;;18.53;14.77;;;16.60;99.90;;;;;;4180673;28;20694;-76
2021/08/05 03:43:21;;;;;;;20.00;15.60;;;16.60;99.90;;;;;;4168871;28;20272;-76
2021/08/05 03:45:23;;;;;;;18.17;14.63;;;16.70;99.90;;;;;;4181064;28;20270;-76
2021/08/05 03:47:25;;;;;;;20.30;14.90;;;16.70;99.90;;;;;;4180141;28;20724;-75
2021/08/05 03:49:26;;;;;;;16.57;13.67;;;16.70;99.90;;;;;;4180369;28;20205;-76
2021/08/05 03:51:28;;;;;;;16.97;14.57;;;16.70;99.90;;;;;;4169109;28;20224;-75
2021/08/05 03:53:30;;;;;;;17.70;14.67;;;16.70;99.90;;;;;;4170457;28;20221;-75
2021/08/05 03:55:33;;;;;;;19.77;14.80;;;16.70;99.90;;;;;;4180533;28;20206;-75
2021/08/05 03:57:35;;;;;;;18.60;14.63;;;16.70;99.90;;;;;;4180905;28;20325;-76
2021/08/05 03:59:37;;;;;;;17.63;14.57;;;16.70;99.90;;;;;;4171532;28;20260;-75
2021/08/05 04:01:38;;;;;;;17.67;14.63;;;16.70;99.90;;;;;;4165997;28;20628;-75
2021/08/05 04:03:40;;;;;;;18.23;14.73;;;16.70;99.90;;;;;;4179603;28;20218;-75
2021/08/05 04:05:42;;;;;;;17.93;14.13;;;16.70;99.90;;;;;;4180334;28;20213;-75
2021/08/05 04:07:43;;;;;;;17.97;14.37;;;16.70;99.90;;;;;;4180573;28;20305;-77
2021/08/05 04:09:45;;;;;;;17.90;14.63;;;16.70;99.90;;;;;;4177347;28;20214;-76
2021/08/05 04:11:48;;;;;;;17.43;14.50;;;16.70;99.90;;;;;;4180908;28;20217;-75
2021/08/05 04:13:50;;;;;;;18.67;14.07;;;16.70;99.90;;;;;;4180007;28;20223;-75
2021/08/05 04:15:52;;;;;;;21.07;15.33;;;16.70;99.90;;;;;;4179504;28;20210;-76
2021/08/05 04:17:53;;;;;;;19.87;14.43;;;16.70;99.90;;;;;;4176127;28;20284;-75
2021/08/05 04:19:55;;;;;;;17.63;14.57;;;16.70;99.90;;;;;;4179672;28;20209;-75
2021/08/05 04:21:57;;;;;;;16.20;14.03;;;16.70;99.90;;;;;;4180426;28;20673;-75
2021/08/05 04:23:58;;;;;;;16.33;13.40;;;16.80;99.90;;;;;;4179483;28;20739;-76
2021/08/05 04:26:00;;;;;;;18.90;14.13;;;16.80;99.90;;;;;;4179019;28;20644;-76
2021/08/05 04:28:03;;;;;;;17.50;13.47;;;16.80;99.90;;;;;;4179757;28;20240;-75
2021/08/05 04:30:06;;;;;;;18.13;14.37;;;16.80;99.90;;;;;;4179389;28;20210;-75
2021/08/05 04:32:08;;;;;;;17.20;13.93;;;16.80;99.90;;;;;;4179986;28;20663;-76
2021/08/05 04:34:11;;;;;;;19.67;14.63;;;16.90;99.90;;;;;;4178220;28;20218;-75
2021/08/05 04:36:13;;;;;;;19.27;14.43;;;16.80;99.90;;;;;;4175147;28;20260;-75
2021/08/05 04:38:15;;;;;;;22.00;14.67;;;16.80;99.90;;;;;;4180235;28;20268;-76
2021/08/05 04:40:17;;;;;;;20.27;15.60;;;16.90;99.90;;;;;;4179136;28;20202;-76
2021/08/05 04:42:18;;;;;;;19.37;14.90;;;16.90;99.90;;;;;;4180678;28;20579;-76
2021/08/05 04:44:21;;;;;;;18.70;14.73;;;16.90;99.90;;;;;;4174051;28;20221;-75
2021/08/05 04:46:23;;;;;;;21.17;15.20;;;16.90;99.90;;;;;;4167165;28;20227;-75
2021/08/05 04:48:27;;;;;;;18.00;14.17;;;16.90;99.90;;;;;;4168372;28;20260;-75
2021/08/05 04:50:31;;;;;;;18.50;14.90;;;16.90;99.90;;;;;;4179732;28;20210;-76
2021/08/05 04:52:32;;;;;;;22.23;15.73;;;17.00;99.90;;;;;;4180018;28;20205;-76
2021/08/05 04:54:35;;;;;;;23.67;16.23;;;17.00;99.90;;;;;;4179196;28;20213;-76
2021/08/05 04:56:36;;;;;;;19.03;15.27;;;17.00;99.90;;;;;;4176504;28;20286;-76
2021/08/05 04:58:38;;;;;;;20.27;16.10;;;17.00;99.90;;;;;;4180446;28;20296;-76
2021/08/05 05:00:43;;;;;;;20.17;15.80;;;17.00;99.90;;;;;;4178994;28;20206;-76
2021/08/05 05:02:44;;;;;;;19.43;15.73;;;17.00;99.90;;;;;;4177941;28;20257;-77
2021/08/05 05:04:46;;;;;;;17.57;14.63;;;17.00;99.90;;;;;;4178723;28;20203;-76
2021/08/05 05:06:48;;;;;;;20.50;15.13;;;17.00;99.90;;;;;;4176291;28;20234;-78
2021/08/05 05:08:49;;;;;;;16.83;13.73;;;17.10;99.90;;;;;;4175752;28;20214;-77
2021/08/05 05:10:52;;;;;;;20.20;14.43;;;17.10;99.90;;;;;;4179265;28;20256;-78
2021/08/05 05:12:54;;;;;;;18.00;14.63;;;17.10;99.90;;;;;;4174133;28;20264;-76
2021/08/05 05:14:56;;;;;;;16.87;13.97;;;17.20;99.90;;;;;;4178864;28;20206;-77
2021/08/05 05:17:00;;;;;;;18.10;14.93;;;17.10;99.90;;;;;;4175665;28;20280;-80
2021/08/05 05:19:02;;;;;;;16.10;13.83;;;17.20;99.90;;;;;;4171230;28;20214;-77
2021/08/05 05:21:03;;;;;;;16.17;13.50;;;17.20;99.90;;;;;;4178737;28;20210;-77
2021/08/05 05:23:06;;;;;;;16.67;13.47;;;17.20;99.90;;;;;;4179110;28;20206;-76
2021/08/05 05:25:11;;;;;;;17.80;14.00;;;17.30;99.90;;;;;;4173262;28;20257;-76
2021/08/05 05:27:13;;;;;;;16.07;13.10;;;17.30;99.90;;;;;;4163890;28;20269;-76
2021/08/05 05:29:15;;;;;;;17.80;13.73;;;17.30;99.90;;;;;;4178617;28;20206;-76
2021/08/05 05:31:17;;;;;;;15.80;12.83;;;17.40;99.90;;;;;;4179244;28;20256;-76
2021/08/05 05:33:20;;;;;;;15.23;12.40;;;17.40;99.90;;;;;;4178928;28;20294;-76
2021/08/05 05:35:22;;;;;;;14.37;12.27;;;17.50;99.90;;;;;;4179867;28;20635;-76
2021/08/05 05:37:24;;;;;;;19.43;12.93;;;17.50;99.90;;;;;;4178501;28;20269;-76
2021/08/05 05:39:26;;;;;;;15.27;12.73;;;17.50;99.90;;;;;;4179139;28;20210;-77
2021/08/05 05:41:28;;;;;;;16.80;11.97;;;17.60;99.90;;;;;;4179488;28;20224;-77
2021/08/05 05:43:29;;;;;;;14.63;12.13;;;17.60;99.90;;;;;;4180238;28;20658;-76
2021/08/05 05:45:32;;;;;;;14.80;11.90;;;17.60;99.90;;;;;;4181518;28;20207;-76
2021/08/05 05:47:33;;;;;;;16.77;11.63;;;17.70;99.90;;;;;;4180383;28;20239;-76
2021/08/05 05:49:37;;;;;;;14.20;11.33;;;17.70;99.90;;;;;;4181985;28;20210;-76
2021/08/05 05:51:38;;;;;;;15.37;11.67;;;17.70;99.90;;;;;;4182416;28;20293;-77
2021/08/05 05:53:40;;;;;;;12.57;10.97;;;17.70;99.90;;;;;;4174968;28;20215;-76
2021/08/05 05:55:42;;;;;;;12.57;10.50;;;17.80;99.90;;;;;;4178036;28;20215;-77
2021/08/05 05:57:43;;;;;;;13.13;10.63;;;17.80;99.90;;;;;;4177972;28;20969;-76
2021/08/05 05:59:45;;;;;;;14.83;10.60;;;17.90;99.90;;;;;;4176114;28;20210;-77
2021/08/05 06:01:47;;;;;;;11.67;9.80;;;17.90;99.90;;;;;;4174991;28;20217;-76
2021/08/05 06:03:49;;;;;;;10.93;9.30;;;17.90;99.90;;;;;;4176700;28;20649;-77
2021/08/05 06:05:52;;;;;;;11.33;9.10;;;17.90;99.90;;;;;;4178264;28;20702;-78
2021/08/05 06:07:53;;;;;;;10.27;8.03;;;18.00;99.90;;;;;;4177868;28;20284;-77
2021/08/05 06:09:55;;;;;;;10.33;7.70;;;18.00;99.90;;;;;;4175981;28;20211;-76
2021/08/05 06:11:57;;;;;;;9.43;7.87;;;18.00;99.90;;;;;;4175183;28;20635;-76
2021/08/05 06:13:59;;;;;;;12.07;8.57;;;18.10;99.90;;;;;;4177431;28;20221;-77
2021/08/05 06:16:00;;;;;;;10.37;7.97;;;18.10;99.90;;;;;;4177719;28;20670;-76
2021/08/05 06:18:03;;;;;;;10.50;7.63;;;18.10;99.90;;;;;;4177681;28;20231;-77
2021/08/05 06:20:06;;;;;;;11.10;7.50;;;18.20;99.90;;;;;;4177748;28;20694;-77
2021/08/05 06:22:10;;;;;;;8.73;7.13;;;18.20;99.90;;;;;;4174682;28;20217;-78
2021/08/05 06:24:12;;;;;;;9.63;7.23;;;18.30;99.90;;;;;;4177935;28;20203;-77
2021/08/05 06:26:14;;;;;;;7.77;6.50;;;18.30;99.90;;;;;;4178349;28;20212;-78
2021/08/05 06:28:16;;;;;;;8.13;6.47;;;18.40;99.90;;;;;;4177237;28;20683;-76
2021/08/05 06:30:19;;;;;;;8.43;6.63;;;18.50;99.90;;;;;;4176714;28;20223;-76
2021/08/05 06:32:20;;;;;;;8.30;6.50;;;18.50;99.90;;;;;;4165620;28;20219;-77
2021/08/05 06:34:22;;;;;;;7.60;6.23;;;18.50;99.90;;;;;;4175959;28;20219;-78
2021/08/05 06:36:24;;;;;;;8.63;6.60;;;18.60;99.90;;;;;;4177785;28;20265;-77
2021/08/05 06:38:27;;;;;;;8.00;6.20;;;18.70;99.90;;;;;;4180016;28;20725;-77
2021/08/05 06:40:28;;;;;;;7.43;6.33;;;18.70;99.90;;;;;;4169155;28;20603;-77
2021/08/05 06:42:30;;;;;;;8.50;6.00;;;18.80;99.90;;;;;;4176810;28;20213;-78
2021/08/05 06:44:35;;;;;;;9.10;6.60;;;18.90;99.90;;;;;;4177295;28;20237;-78
2021/08/05 06:46:37;;;;;;;8.10;6.33;;;18.90;99.90;;;;;;4177465;28;20658;-77
2021/08/05 06:48:39;;;;;;;7.97;6.23;;;19.00;99.90;;;;;;4176331;28;20242;-77
2021/08/05 06:50:40;;;;;;;7.87;6.50;;;19.10;99.90;;;;;;4170628;28;20555;-77
2021/08/05 06:52:42;;;;;;;8.20;6.67;;;19.20;99.90;;;;;;4176279;28;20228;-78
2021/08/05 06:54:45;;;;;;;6.60;5.87;;;19.30;99.90;;;;;;4175702;28;20211;-77
2021/08/05 06:56:47;;;;;;;7.03;6.07;;;19.40;99.90;;;;;;4177376;28;20234;-77
2021/08/05 06:58:48;;;;;;;7.33;6.17;;;19.50;99.90;;;;;;4176559;28;20274;-77
2021/08/05 07:00:50;;;;;;;8.70;5.83;;;19.50;99.90;;;;;;4167912;28;21054;-77
2021/08/05 07:02:52;;;;;;;9.03;5.73;;;19.60;99.90;;;;;;4175270;28;20252;-79
2021/08/05 07:04:54;;;;;;;6.40;5.77;;;19.60;99.90;;;;;;4176495;28;20270;-77
2021/08/05 07:06:56;;;;;;;6.73;5.77;;;19.70;99.90;;;;;;4176536;28;20692;-77
2021/08/05 07:08:58;;;;;;;9.03;6.13;;;19.80;99.90;;;;;;4175754;28;20212;-77
2021/08/05 07:11:01;;;;;;;7.80;6.10;;;19.90;99.90;;;;;;4177739;28;20210;-78
2021/08/05 07:13:03;;;;;;;7.23;5.77;;;19.90;99.90;;;;;;4178028;28;20212;-77
2021/08/05 07:15:06;;;;;;;6.23;5.13;;;20.00;99.90;;;;;;4177170;28;20297;-79
2021/08/05 07:17:09;;;;;;;7.03;5.53;;;20.10;99.90;;;;;;4176746;28;20649;-78
2021/08/05 07:19:10;;;;;;;7.30;5.40;;;20.20;99.90;;;;;;4177103;28;20532;-78
2021/08/05 07:21:12;;;;;;;7.93;5.57;;;20.30;99.90;;;;;;4178752;28;20222;-78
2021/08/05 07:23:14;;;;;;;7.10;5.93;;;20.30;99.90;;;;;;4175963;28;20808;-78
2021/08/05 07:25:17;;;;;;;7.13;5.80;;;20.40;99.90;;;;;;4162215;28;20276;-78
2021/08/05 07:27:20;;;;;;;6.17;5.50;;;20.40;99.90;;;;;;4171893;28;20246;-77
2021/08/05 07:29:22;;;;;;;7.30;5.80;;;20.50;99.90;;;;;;4174900;28;20244;-77
2021/08/05 07:31:23;;;;;;;5.90;5.30;;;20.50;99.90;;;;;;4176832;28;20264;-77
2021/08/05 07:33:26;;;;;;;7.57;5.50;;;20.70;99.90;;;;;;4175571;28;20223;-78
2021/08/05 07:35:27;;;;;;;7.17;5.93;;;20.70;99.90;;;;;;4176996;28;20286;-77
2021/08/05 07:37:29;;;;;;;7.00;5.57;;;20.80;99.90;;;;;;4177283;28;20230;-78
2021/08/05 07:39:31;;;;;;;6.93;6.20;;;20.80;99.90;;;;;;4176512;28;20218;-78
2021/08/05 07:41:33;;;;;;;6.10;5.40;;;20.90;99.90;;;;;;4177370;28;20670;-77
2021/08/05 07:43:36;;;;;;;6.83;5.33;;;21.00;99.90;;;;;;4173749;28;20267;-77
2021/08/05 07:45:37;;;;;;;6.43;5.63;;;21.00;99.90;;;;;;4177159;28;20658;-78
2021/08/05 07:47:39;;;;;;;6.03;5.23;;;21.10;99.90;;;;;;4177250;28;20233;-78
2021/08/05 07:49:42;;;;;;;6.03;5.43;;;21.20;99.90;;;;;;4178496;28;20563;-77
2021/08/05 07:51:44;;;;;;;7.10;5.07;;;21.20;99.90;;;;;;4177968;28;20211;-78
2021/08/05 07:53:45;;;;;;;5.90;5.30;;;21.30;99.90;;;;;;4179318;28;20210;-77
2021/08/05 07:55:47;;;;;;;6.37;5.13;;;21.30;99.90;;;;;;4180328;28;20236;-77
2021/08/05 07:57:50;;;;;;;5.73;4.90;;;21.40;99.90;;;;;;4179535;28;20239;-78
2021/08/05 07:59:53;;;;;;;5.50;4.63;;;21.50;99.90;;;;;;4181889;28;20789;-78
2021/08/05 08:01:55;;;;;;;6.63;4.73;;;21.60;99.90;;;;;;4183704;28;20211;-78
2021/08/05 08:03:57;;;;;;;5.77;5.00;;;21.60;99.90;;;;;;4185355;28;20280;-77
2021/08/05 08:05:58;;;;;;;6.23;4.50;;;21.60;99.90;;;;;;4180204;28;20295;-78
2021/08/05 08:08:00;;;;;;;6.40;4.80;;;21.60;99.90;;;;;;4178735;28;20239;-77
2021/08/05 08:10:03;;;;;;;5.70;4.60;;;21.70;99.90;;;;;;4181438;28;20606;-78
2021/08/05 08:12:05;;;;;;;5.47;4.37;;;21.70;99.90;;;;;;4184061;28;21310;-77
2021/08/05 08:14:07;;;;;;;5.40;4.27;;;21.80;99.90;;;;;;4186132;28;20269;-78
2021/08/05 08:16:10;;;;;;;6.63;4.57;;;21.80;99.90;;;;;;4186035;28;20204;-77
2021/08/05 08:18:12;;;;;;;5.13;4.40;;;21.90;99.90;;;;;;4183021;28;20240;-78
2021/08/05 08:20:14;;;;;;;5.00;4.07;;;21.90;99.90;;;;;;4180203;28;20205;-78
2021/08/05 08:22:16;;;;;;;5.23;3.90;;;21.90;99.90;;;;;;4177950;28;20274;-78
2021/08/05 08:24:18;;;;;;;4.27;3.83;;;22.00;99.90;;;;;;4176465;28;20274;-78
2021/08/05 08:26:19;;;;;;;4.43;3.70;;;22.00;99.90;;;;;;4175636;28;20227;-78
2021/08/05 08:28:21;;;;;;;4.53;3.47;;;22.10;99.90;;;;;;4176516;28;20288;-78
2021/08/05 08:30:23;;;;;;;3.47;3.10;;;22.10;99.90;;;;;;4176596;28;20219;-78
2021/08/05 08:32:27;;;;;;;4.23;3.30;;;22.10;99.90;;;;;;4177029;28;20220;-78
2021/08/05 08:34:29;;;;;;;4.90;3.30;;;22.20;99.90;;;;;;4174715;28;20742;-77
2021/08/05 08:36:31;;;;;;;3.87;3.47;;;22.20;99.90;;;;;;4175061;28;20212;-78
2021/08/05 08:38:33;;;;;;;4.43;3.80;;;22.30;99.90;;;;;;4176470;28;20228;-77
2021/08/05 08:40:35;;;;;;;3.83;3.27;;;22.40;99.90;;;;;;4176787;28;20229;-78
2021/08/05 08:42:38;;;;;;;5.10;3.20;;;22.50;99.90;;;;;;4176686;28;20653;-77
2021/08/05 08:44:40;;;;;;;4.50;3.50;;;22.60;99.70;;;;;;4174249;28;20760;-77
2021/08/05 08:46:43;;;;;;;3.77;3.37;;;22.60;99.10;;;;;;4179424;28;20237;-77
2021/08/05 08:48:46;;;;;;;4.47;3.33;;;22.60;99.00;;;;;;4178664;28;20649;-77
2021/08/05 08:50:50;;;;;;;3.73;3.10;;;22.70;98.40;;;;;;4184724;28;20210;-77
2021/08/05 08:52:55;;;;;;;4.40;3.53;;;22.80;98.60;;;;;;4181474;28;20244;-77
2021/08/05 08:54:58;;;;;;;6.47;3.30;;;22.80;98.20;;;;;;4183807;28;20229;-78
2021/08/05 08:57:01;;;;;;;7.57;3.83;;;22.90;98.30;;;;;;4191365;23;20505;-79
2021/08/05 08:59:03;;;;;;;7.00;3.90;;;23.00;98.80;;;;;;4158745;28;20214;-78
2021/08/05 09:01:05;;;;;;;7.90;4.33;;;23.10;98.90;;;;;;4159567;28;20255;-79
2021/08/05 09:03:07;;;;;;;4.73;3.70;;;23.20;98.40;;;;;;4157086;28;20211;-78
2021/08/05 09:05:12;;;;;;;6.67;4.17;;;23.30;98.50;;;;;;4159508;28;20219;-79
2021/08/05 09:07:13;;;;;;;5.93;4.47;;;23.40;98.40;;;;;;4157630;28;20304;-79
2021/08/05 09:09:16;;;;;;;8.00;4.33;;;23.50;98.50;;;;;;4157802;28;20652;-79
2021/08/05 09:11:18;;;;;;;5.53;4.30;;;23.60;98.50;;;;;;4159602;28;20221;-79
2021/08/05 09:13:19;;;;;;;5.40;4.43;;;23.60;97.80;;;;;;4158534;28;20211;-79
2021/08/05 09:15:34;;;;;;;5.80;4.57;;;23.70;97.50;;;;;;4159521;28;20211;-79
2021/08/05 09:17:41;;;;;;;6.77;4.97;;;23.70;96.80;;;;;;4159660;28;20239;-79
2021/08/05 09:19:42;;;;;;;6.50;4.73;;;23.70;97.10;;;;;;4160393;28;20809;-79
2021/08/05 09:21:54;;;;;;;4.93;4.30;;;23.80;97.00;;;;;;4153357;28;20212;-79
2021/08/05 09:23:59;;;;;;;5.50;4.27;;;23.80;96.80;;;;;;4161396;28;20241;-80
2021/08/05 09:26:01;;;;;;;5.60;4.07;;;23.80;96.40;;;;;;4146684;28;20676;-79
2021/08/05 09:28:14;;;;;;;5.70;3.70;;;23.90;95.50;;;;;;4159890;28;20234;-80
2021/08/05 09:30:32;;;;;;;3.63;3.27;;;23.90;93.70;;;;;;4157643;28;20631;-79
2021/08/05 09:32:34;;;;;;;4.53;3.57;;;23.90;94.20;;;;;;4162119;28;20239;-79
2021/08/05 09:34:39;;;;;;;4.77;3.53;;;24.00;94.40;;;;;;4161706;28;20262;-81
2021/08/05 09:36:43;;;;;;;4.63;3.83;;;24.00;94.70;;;;;;4162168;28;20712;-79
2021/08/05 09:38:46;;;;;;;4.87;4.33;;;24.00;94.40;;;;;;4155582;28;20290;-79
2021/08/05 09:40:49;;;;;;;6.73;4.67;;;23.90;94.40;;;;;;4161432;28;20203;-79
2021/08/05 09:42:56;;;;;;;5.93;4.83;;;23.90;94.70;;;;;;4162404;28;20791;-79
2021/08/05 09:44:57;;;;;;;5.77;5.17;;;23.90;95.40;;;;;;4160969;28;20211;-79
2021/08/05 09:47:04;;;;;;;5.77;4.80;;;23.80;95.90;;;;;;4160162;28;20318;-79
2021/08/05 09:49:18;;;;;;;5.40;4.50;;;23.80;96.30;;;;;;4159094;28;20231;-79
2021/08/05 09:51:20;;;;;;;6.27;4.50;;;23.80;95.90;;;;;;4160965;28;20488;-79
2021/08/05 09:53:22;;;;;;;5.13;4.60;;;23.70;95.90;;;;;;4161467;28;20284;-79
2021/08/05 09:55:25;;;;;;;4.70;4.00;;;23.60;95.60;;;;;;4155171;28;20238;-79
2021/08/05 09:57:28;;;;;;;6.07;4.60;;;23.60;95.60;;;;;;4161740;28;20246;-79
2021/08/05 09:59:29;;;;;;;6.53;5.73;;;23.60;96.10;;;;;;4161518;28;20245;-79
2021/08/05 10:01:31;;;;;;;9.07;5.87;;;23.50;96.80;;;;;;4161035;28;20259;-79
2021/08/05 10:03:34;;;;;;;7.73;6.80;;;23.30;96.90;;;;;;4157705;28;20226;-79
2021/08/05 10:05:36;;;;;;;10.07;6.30;;;23.20;97.80;;;;;;4159152;28;20312;-79
2021/08/05 10:07:42;;;;;;;7.83;6.60;;;23.10;98.30;;;;;;4161551;28;20678;-81
2021/08/05 10:09:44;;;;;;;9.47;6.27;;;23.00;98.50;;;;;;4161645;28;20244;-78
2021/08/05 10:11:47;;;;;;;8.37;6.20;;;22.90;98.90;;;;;;4162167;28;20222;-79
2021/08/05 10:13:49;;;;;;;7.13;6.40;;;22.80;98.90;;;;;;4155510;28;20216;-78
2021/08/05 10:15:51;;;;;;;8.30;6.90;;;22.70;99.20;;;;;;4149370;28;20217;-78
2021/08/05 10:17:55;;;;;;;7.77;6.70;;;22.60;99.60;;;;;;4161395;28;20329;-78
2021/08/05 10:19:59;;;;;;;8.83;6.47;;;22.60;99.90;;;;;;4159534;28;20733;-79
2021/08/05 10:22:01;;;;;;;9.17;6.87;;;22.50;99.90;;;;;;4161654;28;20503;-78
2021/08/05 10:24:03;;;;;;;9.93;7.13;;;22.50;99.90;;;;;;4157211;28;20219;-79
2021/08/05 10:26:07;;;;;;;7.93;7.13;;;22.40;99.90;;;;;;4162037;28;20242;-78
2021/08/05 10:28:12;;;;;;;8.43;7.10;;;22.30;99.90;;;;;;4157549;28;20239;-80
2021/08/05 10:30:17;;;;;;;8.83;6.87;;;22.20;99.90;;;;;;4150136;28;20638;-78